sensor_id;sensor_type;location;lat;lon;timestamp;temperature;humidity
52058;DHT22;38063;53.210;6.504;2024-01-11T00:00:28;-4.70;99.90
52058;DHT22;38063;53.210;6.504;2024-01-11T00:02:54;-4.70;99.90
52058;DHT22;38063;53.210;6.504;2024-01-11T00:05:20;-4.70;99.90
52058;DHT22;38063;53.210;6.504;2024-01-11T00:07:45;-4.70;99.90
52058;DHT22;38063;53.210;6.504;2024-01-11T00:10:11;-4.70;99.90
52058;DHT22;38063;53.210;6.504;2024-01-11T00:12:37;-4.70;99.90
52058;DHT22;38063;53.210;6.504;2024-01-11T00:15:03;-4.70;99.90
52058;DHT22;38063;53.210;6.504;2024-01-11T00:17:29;-4.80;99.90
52058;DHT22;38063;53.210;6.504;2024-01-11T00:19:54;-4.80;99.90
52058;DHT22;38063;53.210;6.504;2024-01-11T00:22:20;-4.80;99.90
52058;DHT22;38063;53.210;6.504;2024-01-11T00:24:46;-4.80;99.90
52058;DHT22;38063;53.210;6.504;2024-01-11T00:27:11;-4.80;99.90
52058;DHT22;38063;53.210;6.504;2024-01-11T00:29:37;-4.80;99.90
52058;DHT22;38063;53.210;6.504;2024-01-11T00:32:03;-4.80;99.90
52058;DHT22;38063;53.210;6.504;2024-01-11T00:34:28;-4.90;99.90
52058;DHT22;38063;53.210;6.504;2024-01-11T00:36:54;-4.90;99.90
52058;DHT22;38063;53.210;6.504;2024-01-11T00:39:20;-4.90;99.90
52058;DHT22;38063;53.210;6.504;2024-01-11T00:41:46;-4.90;99.90
52058;DHT22;38063;53.210;6.504;2024-01-11T00:44:11;-5.00;99.90
52058;DHT22;38063;53.210;6.504;2024-01-11T00:46:37;-5.00;99.90
52058;DHT22;38063;53.210;6.504;2024-01-11T00:49:04;-5.00;99.90
52058;DHT22;38063;53.210;6.504;2024-01-11T00:51:29;-5.00;99.90
52058;DHT22;38063;53.210;6.504;2024-01-11T00:53:55;-5.00;99.90
52058;DHT22;38063;53.210;6.504;2024-01-11T00:56:21;-5.00;99.90
52058;DHT22;38063;53.210;6.504;2024-01-11T00:58:47;-5.10;99.90
52058;DHT22;38063;53.210;6.504;2024-01-11T01:01:13;-5.10;99.90
52058;DHT22;38063;53.210;6.504;2024-01-11T01:03:39;-5.10;99.90
52058;DHT22;38063;53.210;6.504;2024-01-11T01:06:05;-5.10;99.90
52058;DHT22;38063;53.210;6.504;2024-01-11T01:08:30;-5.10;99.90
52058;DHT22;38063;53.210;6.504;2024-01-11T01:10:56;-5.10;99.90
52058;DHT22;38063;53.210;6.504;2024-01-11T01:13:22;-5.10;99.90
52058;DHT22;38063;53.210;6.504;2024-01-11T01:15:47;-5.10;99.90
52058;DHT22;38063;53.210;6.504;2024-01-11T01:18:13;-5.10;99.90
52058;DHT22;38063;53.210;6.504;2024-01-11T01:20:39;-5.10;99.90
52058;DHT22;38063;53.210;6.504;2024-01-11T01:23:05;-5.10;99.90
52058;DHT22;38063;53.210;6.504;2024-01-11T01:25:31;-5.10;99.90
52058;DHT22;38063;53.210;6.504;2024-01-11T01:27:58;-5.20;99.90
52058;DHT22;38063;53.210;6.504;2024-01-11T01:30:24;-4.60;99.90
52058;DHT22;38063;53.210;6.504;2024-01-11T01:32:50;-5.10;99.90
52058;DHT22;38063;53.210;6.504;2024-01-11T01:35:16;-5.10;99.90
52058;DHT22;38063;53.210;6.504;2024-01-11T01:37:42;-5.10;99.90
52058;DHT22;38063;53.210;6.504;2024-01-11T01:40:08;-5.10;99.90
52058;DHT22;38063;53.210;6.504;2024-01-11T01:42:34;-5.10;99.90
52058;DHT22;38063;53.210;6.504;2024-01-11T01:45:00;-5.10;99.90
52058;DHT22;38063;53.210;6.504;2024-01-11T01:47:26;-5.10;99.90
52058;DHT22;38063;53.210;6.504;2024-01-11T01:49:53;-5.00;99.90
52058;DHT22;38063;53.210;6.504;2024-01-11T01:52:21;-5.10;99.90
52058;DHT22;38063;53.210;6.504;2024-01-11T01:54:48;-5.10;99.90
52058;DHT22;38063;53.210;6.504;2024-01-11T01:57:16;-5.10;99.90
52058;DHT22;38063;53.210;6.504;2024-01-11T01:59:44;-5.10;99.90
52058;DHT22;38063;53.210;6.504;2024-01-11T02:02:12;-5.10;99.90
52058;DHT22;38063;53.210;6.504;2024-01-11T02:04:37;-5.00;99.90
52058;DHT22;38063;53.210;6.504;2024-01-11T02:07:04;-5.00;99.90
52058;DHT22;38063;53.210;6.504;2024-01-11T02:09:31;-5.10;99.90
52058;DHT22;38063;53.210;6.504;2024-01-11T02:11:58;-5.10;99.90
52058;DHT22;38063;53.210;6.504;2024-01-11T02:14:24;-5.20;99.90
52058;DHT22;38063;53.210;6.504;2024-01-11T02:16:50;-5.20;99.90
52058;DHT22;38063;53.210;6.504;2024-01-11T02:19:18;-5.20;99.90
52058;DHT22;38063;53.210;6.504;2024-01-11T02:21:46;-5.20;99.90
52058;DHT22;38063;53.210;6.504;2024-01-11T02:24:13;-5.20;99.90
52058;DHT22;38063;53.210;6.504;2024-01-11T02:27:02;-5.20;99.90
52058;DHT22;38063;53.210;6.504;2024-01-11T02:29:28;-5.20;99.90
52058;DHT22;38063;53.210;6.504;2024-01-11T02:31:59;-5.20;99.90
52058;DHT22;38063;53.210;6.504;2024-01-11T02:34:28;-5.20;99.90
52058;DHT22;38063;53.210;6.504;2024-01-11T02:36:55;-5.20;99.90
52058;DHT22;38063;53.210;6.504;2024-01-11T02:39:23;-5.30;99.90
52058;DHT22;38063;53.210;6.504;2024-01-11T02:41:50;-5.30;99.90
52058;DHT22;38063;53.210;6.504;2024-01-11T02:44:16;-5.30;99.90
52058;DHT22;38063;53.210;6.504;2024-01-11T02:46:42;-5.40;99.90
52058;DHT22;38063;53.210;6.504;2024-01-11T02:49:07;-5.40;99.90
52058;DHT22;38063;53.210;6.504;2024-01-11T02:51:33;-5.40;99.90
52058;DHT22;38063;53.210;6.504;2024-01-11T02:53:59;-5.40;99.90
52058;DHT22;38063;53.210;6.504;2024-01-11T02:56:24;-5.50;99.90
52058;DHT22;38063;53.210;6.504;2024-01-11T02:58:50;-5.40;99.90
52058;DHT22;38063;53.210;6.504;2024-01-11T03:01:16;-5.40;99.90
52058;DHT22;38063;53.210;6.504;2024-01-11T03:03:41;-5.50;99.90
52058;DHT22;38063;53.210;6.504;2024-01-11T03:06:07;-5.50;99.90
52058;DHT22;38063;53.210;6.504;2024-01-11T03:08:33;-5.50;99.90
52058;DHT22;38063;53.210;6.504;2024-01-11T03:10:59;-5.50;99.90
52058;DHT22;38063;53.210;6.504;2024-01-11T03:13:24;-3.80;99.90
52058;DHT22;38063;53.210;6.504;2024-01-11T03:15:50;-5.50;99.90
52058;DHT22;38063;53.210;6.504;2024-01-11T03:18:16;-5.50;99.90
52058;DHT22;38063;53.210;6.504;2024-01-11T03:20:41;-5.50;99.90
52058;DHT22;38063;53.210;6.504;2024-01-11T03:23:07;-5.50;99.90
52058;DHT22;38063;53.210;6.504;2024-01-11T03:25:33;-5.50;99.90
52058;DHT22;38063;53.210;6.504;2024-01-11T03:27:58;-5.50;99.90
52058;DHT22;38063;53.210;6.504;2024-01-11T03:30:25;-5.50;99.90
52058;DHT22;38063;53.210;6.504;2024-01-11T03:32:50;-5.50;99.90
52058;DHT22;38063;53.210;6.504;2024-01-11T03:35:17;-5.50;99.90
52058;DHT22;38063;53.210;6.504;2024-01-11T03:37:43;-5.40;99.90
52058;DHT22;38063;53.210;6.504;2024-01-11T03:40:09;-5.50;99.90
52058;DHT22;38063;53.210;6.504;2024-01-11T03:42:34;-5.40;99.90
52058;DHT22;38063;53.210;6.504;2024-01-11T03:45:00;-5.50;99.90
52058;DHT22;38063;53.210;6.504;2024-01-11T03:47:26;-5.50;99.90
52058;DHT22;38063;53.210;6.504;2024-01-11T03:49:51;-5.50;99.90
52058;DHT22;38063;53.210;6.504;2024-01-11T03:52:17;-5.40;99.90
52058;DHT22;38063;53.210;6.504;2024-01-11T03:54:43;-5.40;99.90
52058;DHT22;38063;53.210;6.504;2024-01-11T03:57:08;-5.40;99.90
52058;DHT22;38063;53.210;6.504;2024-01-11T03:59:34;-5.40;99.90
52058;DHT22;38063;53.210;6.504;2024-01-11T04:02:00;-5.40;99.90
52058;DHT22;38063;53.210;6.504;2024-01-11T04:04:26;-5.20;99.90
52058;DHT22;38063;53.210;6.504;2024-01-11T04:06:52;-5.40;99.90
52058;DHT22;38063;53.210;6.504;2024-01-11T04:09:18;-5.40;99.90
52058;DHT22;38063;53.210;6.504;2024-01-11T04:11:45;-5.30;99.90
52058;DHT22;38063;53.210;6.504;2024-01-11T04:14:11;-5.30;99.90
52058;DHT22;38063;53.210;6.504;2024-01-11T04:16:42;-5.30;99.90
52058;DHT22;38063;53.210;6.504;2024-01-11T04:19:09;-5.20;99.90
52058;DHT22;38063;53.210;6.504;2024-01-11T04:21:34;-5.20;99.90
52058;DHT22;38063;53.210;6.504;2024-01-11T04:24:00;-5.20;99.90
52058;DHT22;38063;53.210;6.504;2024-01-11T04:26:26;-5.10;99.90
52058;DHT22;38063;53.210;6.504;2024-01-11T04:28:52;-5.10;99.90
52058;DHT22;38063;53.210;6.504;2024-01-11T04:31:18;-5.10;99.90
52058;DHT22;38063;53.210;6.504;2024-01-11T04:33:45;-5.10;99.90
52058;DHT22;38063;53.210;6.504;2024-01-11T04:36:11;-5.00;99.90
52058;DHT22;38063;53.210;6.504;2024-01-11T04:38:37;-4.90;99.90
52058;DHT22;38063;53.210;6.504;2024-01-11T04:41:07;-4.90;99.90
52058;DHT22;38063;53.210;6.504;2024-01-11T04:43:35;-4.80;99.90
52058;DHT22;38063;53.210;6.504;2024-01-11T04:46:00;-4.80;99.90
52058;DHT22;38063;53.210;6.504;2024-01-11T04:48:26;-4.80;99.90
52058;DHT22;38063;53.210;6.504;2024-01-11T04:50:51;-4.70;99.90
52058;DHT22;38063;53.210;6.504;2024-01-11T04:53:17;-4.70;99.90
52058;DHT22;38063;53.210;6.504;2024-01-11T04:55:43;-4.40;99.90
52058;DHT22;38063;53.210;6.504;2024-01-11T04:58:08;-4.60;99.90
52058;DHT22;38063;53.210;6.504;2024-01-11T05:00:34;-4.50;99.90
52058;DHT22;38063;53.210;6.504;2024-01-11T05:02:59;-4.50;99.90
52058;DHT22;38063;53.210;6.504;2024-01-11T05:05:25;-4.50;99.90
52058;DHT22;38063;53.210;6.504;2024-01-11T05:07:51;-4.50;99.90
52058;DHT22;38063;53.210;6.504;2024-01-11T05:10:16;-4.40;99.90
52058;DHT22;38063;53.210;6.504;2024-01-11T05:12:42;-4.40;99.90
52058;DHT22;38063;53.210;6.504;2024-01-11T05:15:08;-4.40;99.90
52058;DHT22;38063;53.210;6.504;2024-01-11T05:17:34;-4.30;99.90
52058;DHT22;38063;53.210;6.504;2024-01-11T05:20:00;-4.30;99.90
52058;DHT22;38063;53.210;6.504;2024-01-11T05:22:25;-4.30;99.90
52058;DHT22;38063;53.210;6.504;2024-01-11T05:24:51;-4.20;99.90
52058;DHT22;38063;53.210;6.504;2024-01-11T05:27:17;-4.20;99.90
52058;DHT22;38063;53.210;6.504;2024-01-11T05:29:42;-4.10;99.90
52058;DHT22;38063;53.210;6.504;2024-01-11T05:32:08;-4.10;99.90
52058;DHT22;38063;53.210;6.504;2024-01-11T05:34:33;-4.10;99.90
52058;DHT22;38063;53.210;6.504;2024-01-11T05:36:59;-4.00;99.90
52058;DHT22;38063;53.210;6.504;2024-01-11T05:39:24;-4.00;99.90
52058;DHT22;38063;53.210;6.504;2024-01-11T05:41:50;-3.90;99.90
52058;DHT22;38063;53.210;6.504;2024-01-11T05:44:16;-3.90;99.90
52058;DHT22;38063;53.210;6.504;2024-01-11T05:46:41;-3.90;99.90
52058;DHT22;38063;53.210;6.504;2024-01-11T05:49:07;-3.80;99.90
52058;DHT22;38063;53.210;6.504;2024-01-11T05:51:33;-3.80;99.90
52058;DHT22;38063;53.210;6.504;2024-01-11T05:53:59;-3.70;99.90
52058;DHT22;38063;53.210;6.504;2024-01-11T05:56:24;-3.70;99.90
52058;DHT22;38063;53.210;6.504;2024-01-11T05:58:50;-3.60;99.90
52058;DHT22;38063;53.210;6.504;2024-01-11T06:01:16;-3.60;99.90
52058;DHT22;38063;53.210;6.504;2024-01-11T06:03:42;-3.50;99.90
52058;DHT22;38063;53.210;6.504;2024-01-11T06:06:07;-3.50;99.90
52058;DHT22;38063;53.210;6.504;2024-01-11T06:08:33;-3.50;99.90
52058;DHT22;38063;53.210;6.504;2024-01-11T06:10:59;-3.40;99.90
52058;DHT22;38063;53.210;6.504;2024-01-11T06:13:24;-3.40;99.90
52058;DHT22;38063;53.210;6.504;2024-01-11T06:15:51;-3.40;99.90
52058;DHT22;38063;53.210;6.504;2024-01-11T06:18:17;-3.30;99.90
52058;DHT22;38063;53.210;6.504;2024-01-11T06:20:42;-3.40;99.90
52058;DHT22;38063;53.210;6.504;2024-01-11T06:23:08;-3.30;99.90
52058;DHT22;38063;53.210;6.504;2024-01-11T06:25:34;-3.30;99.90
52058;DHT22;38063;53.210;6.504;2024-01-11T06:27:59;-3.20;99.90
52058;DHT22;38063;53.210;6.504;2024-01-11T06:30:25;-3.20;99.90
52058;DHT22;38063;53.210;6.504;2024-01-11T06:32:51;-3.20;99.90
52058;DHT22;38063;53.210;6.504;2024-01-11T06:35:16;-3.10;99.90
52058;DHT22;38063;53.210;6.504;2024-01-11T06:37:42;-3.10;99.90
52058;DHT22;38063;53.210;6.504;2024-01-11T06:40:08;-3.10;99.90
52058;DHT22;38063;53.210;6.504;2024-01-11T06:42:34;-3.00;99.90
52058;DHT22;38063;53.210;6.504;2024-01-11T06:45:00;-3.00;99.90
52058;DHT22;38063;53.210;6.504;2024-01-11T06:47:26;-3.00;99.90
52058;DHT22;38063;53.210;6.504;2024-01-11T06:49:53;-2.90;99.90
52058;DHT22;38063;53.210;6.504;2024-01-11T06:52:18;-2.90;99.90
52058;DHT22;38063;53.210;6.504;2024-01-11T06:54:45;-2.90;99.90
52058;DHT22;38063;53.210;6.504;2024-01-11T06:57:11;-2.90;99.90
52058;DHT22;38063;53.210;6.504;2024-01-11T06:59:36;-2.80;99.90
52058;DHT22;38063;53.210;6.504;2024-01-11T07:02:03;-2.80;99.90
52058;DHT22;38063;53.210;6.504;2024-01-11T07:04:29;-2.80;99.90
52058;DHT22;38063;53.210;6.504;2024-01-11T07:06:54;-2.70;99.90
52058;DHT22;38063;53.210;6.504;2024-01-11T07:09:20;-2.70;99.90
52058;DHT22;38063;53.210;6.504;2024-01-11T07:11:46;-2.70;99.90
52058;DHT22;38063;53.210;6.504;2024-01-11T07:14:11;-2.70;99.90
52058;DHT22;38063;53.210;6.504;2024-01-11T07:16:37;-2.60;99.90
52058;DHT22;38063;53.210;6.504;2024-01-11T07:19:03;-2.60;99.90
52058;DHT22;38063;53.210;6.504;2024-01-11T07:21:28;-2.60;99.90
52058;DHT22;38063;53.210;6.504;2024-01-11T07:24:00;-2.60;99.90
52058;DHT22;38063;53.210;6.504;2024-01-11T07:26:25;-2.50;99.90
52058;DHT22;38063;53.210;6.504;2024-01-11T07:28:52;-2.50;99.90
52058;DHT22;38063;53.210;6.504;2024-01-11T07:31:20;-2.50;99.90
52058;DHT22;38063;53.210;6.504;2024-01-11T07:33:46;-2.40;99.90
52058;DHT22;38063;53.210;6.504;2024-01-11T07:36:11;-2.40;99.90
52058;DHT22;38063;53.210;6.504;2024-01-11T07:38:37;-2.40;99.90
52058;DHT22;38063;53.210;6.504;2024-01-11T07:41:03;-2.40;99.90
52058;DHT22;38063;53.210;6.504;2024-01-11T07:43:29;-2.30;99.90
52058;DHT22;38063;53.210;6.504;2024-01-11T07:45:57;-2.30;99.90
52058;DHT22;38063;53.210;6.504;2024-01-11T07:48:23;-2.30;99.90
52058;DHT22;38063;53.210;6.504;2024-01-11T07:50:49;-2.20;99.90
52058;DHT22;38063;53.210;6.504;2024-01-11T07:53:15;-2.20;99.90
52058;DHT22;38063;53.210;6.504;2024-01-11T07:55:41;-3.30;99.90
52058;DHT22;38063;53.210;6.504;2024-01-11T07:58:07;-2.20;99.90
52058;DHT22;38063;53.210;6.504;2024-01-11T08:00:33;-2.10;99.90
52058;DHT22;38063;53.210;6.504;2024-01-11T08:02:59;-2.10;99.90
52058;DHT22;38063;53.210;6.504;2024-01-11T08:05:25;-2.10;99.90
52058;DHT22;38063;53.210;6.504;2024-01-11T08:07:51;-2.10;99.90
52058;DHT22;38063;53.210;6.504;2024-01-11T08:10:17;-2.10;99.90
52058;DHT22;38063;53.210;6.504;2024-01-11T08:12:43;-2.10;99.90
52058;DHT22;38063;53.210;6.504;2024-01-11T08:15:09;-2.00;99.90
52058;DHT22;38063;53.210;6.504;2024-01-11T08:17:46;-2.00;99.90
52058;DHT22;38063;53.210;6.504;2024-01-11T08:20:12;-2.00;99.90
52058;DHT22;38063;53.210;6.504;2024-01-11T08:22:42;-2.00;99.90
52058;DHT22;38063;53.210;6.504;2024-01-11T08:25:09;-1.90;99.90
52058;DHT22;38063;53.210;6.504;2024-01-11T08:27:35;-2.00;99.90
52058;DHT22;38063;53.210;6.504;2024-01-11T08:30:01;-1.90;99.90
52058;DHT22;38063;53.210;6.504;2024-01-11T08:32:27;-1.90;99.90
52058;DHT22;38063;53.210;6.504;2024-01-11T08:34:53;-1.90;99.90
52058;DHT22;38063;53.210;6.504;2024-01-11T08:37:19;-1.80;99.90
52058;DHT22;38063;53.210;6.504;2024-01-11T08:39:45;-1.80;99.90
52058;DHT22;38063;53.210;6.504;2024-01-11T08:42:12;-1.80;99.90
52058;DHT22;38063;53.210;6.504;2024-01-11T08:44:44;-1.80;99.90
52058;DHT22;38063;53.210;6.504;2024-01-11T08:47:10;-1.70;99.90
52058;DHT22;38063;53.210;6.504;2024-01-11T08:49:37;-1.70;99.90
52058;DHT22;38063;53.210;6.504;2024-01-11T08:52:04;-1.60;99.90
52058;DHT22;38063;53.210;6.504;2024-01-11T08:54:31;-1.60;99.90
52058;DHT22;38063;53.210;6.504;2024-01-11T08:56:58;-1.60;99.90
52058;DHT22;38063;53.210;6.504;2024-01-11T08:59:24;-1.60;99.90
52058;DHT22;38063;53.210;6.504;2024-01-11T09:01:51;-1.50;99.90
52058;DHT22;38063;53.210;6.504;2024-01-11T09:04:17;-1.50;99.90
52058;DHT22;38063;53.210;6.504;2024-01-11T09:06:43;-1.50;99.90
52058;DHT22;38063;53.210;6.504;2024-01-11T09:09:11;-1.40;99.90
52058;DHT22;38063;53.210;6.504;2024-01-11T09:11:39;-1.40;99.90
52058;DHT22;38063;53.210;6.504;2024-01-11T09:14:06;-1.40;99.90
52058;DHT22;38063;53.210;6.504;2024-01-11T09:16:31;-1.30;99.90
52058;DHT22;38063;53.210;6.504;2024-01-11T09:18:58;-1.00;99.90
52058;DHT22;38063;53.210;6.504;2024-01-11T09:21:26;-1.30;99.90
52058;DHT22;38063;53.210;6.504;2024-01-11T09:23:52;-1.20;99.90
52058;DHT22;38063;53.210;6.504;2024-01-11T09:26:17;-1.20;99.90
52058;DHT22;38063;53.210;6.504;2024-01-11T09:28:43;-1.10;99.90
52058;DHT22;38063;53.210;6.504;2024-01-11T09:31:09;-1.10;99.90
52058;DHT22;38063;53.210;6.504;2024-01-11T09:33:35;-1.10;99.90
52058;DHT22;38063;53.210;6.504;2024-01-11T09:36:01;-1.00;99.90
52058;DHT22;38063;53.210;6.504;2024-01-11T09:38:27;-1.00;99.90
52058;DHT22;38063;53.210;6.504;2024-01-11T09:41:09;-0.90;99.90
52058;DHT22;38063;53.210;6.504;2024-01-11T09:43:35;-0.90;99.90
52058;DHT22;38063;53.210;6.504;2024-01-11T09:46:05;-0.80;99.90
52058;DHT22;38063;53.210;6.504;2024-01-11T09:48:43;-0.80;99.90
52058;DHT22;38063;53.210;6.504;2024-01-11T09:51:10;-0.80;99.90
52058;DHT22;38063;53.210;6.504;2024-01-11T09:53:39;-0.70;99.90
52058;DHT22;38063;53.210;6.504;2024-01-11T09:56:09;-0.60;99.90
52058;DHT22;38063;53.210;6.504;2024-01-11T09:58:36;-0.60;99.90
52058;DHT22;38063;53.210;6.504;2024-01-11T10:01:02;-0.60;99.90
52058;DHT22;38063;53.210;6.504;2024-01-11T10:03:29;-1.00;99.90
52058;DHT22;38063;53.210;6.504;2024-01-11T10:05:57;-0.50;99.90
52058;DHT22;38063;53.210;6.504;2024-01-11T10:08:26;-0.50;99.90
52058;DHT22;38063;53.210;6.504;2024-01-11T10:10:52;-0.40;99.90
52058;DHT22;38063;53.210;6.504;2024-01-11T10:13:18;-0.50;99.90
52058;DHT22;38063;53.210;6.504;2024-01-11T10:15:44;-0.40;99.90
52058;DHT22;38063;53.210;6.504;2024-01-11T10:18:10;-0.40;99.90
52058;DHT22;38063;53.210;6.504;2024-01-11T10:20:36;-0.30;99.90
52058;DHT22;38063;53.210;6.504;2024-01-11T10:23:03;-0.30;99.90
52058;DHT22;38063;53.210;6.504;2024-01-11T10:25:28;-0.30;99.90
52058;DHT22;38063;53.210;6.504;2024-01-11T10:27:54;-0.30;99.90
52058;DHT22;38063;53.210;6.504;2024-01-11T10:30:20;-0.20;99.90
52058;DHT22;38063;53.210;6.504;2024-01-11T10:32:50;-0.20;99.90
52058;DHT22;38063;53.210;6.504;2024-01-11T10:35:18;-0.20;99.90
52058;DHT22;38063;53.210;6.504;2024-01-11T10:37:45;-0.20;99.90
52058;DHT22;38063;53.210;6.504;2024-01-11T10:40:11;-0.20;99.90
52058;DHT22;38063;53.210;6.504;2024-01-11T10:42:45;-0.20;99.90
52058;DHT22;38063;53.210;6.504;2024-01-11T10:45:15;-0.20;99.90
52058;DHT22;38063;53.210;6.504;2024-01-11T10:47:55;-0.10;99.90
52058;DHT22;38063;53.210;6.504;2024-01-11T10:50:23;-0.10;99.90
52058;DHT22;38063;53.210;6.504;2024-01-11T10:53:03;-0.10;99.90
52058;DHT22;38063;53.210;6.504;2024-01-11T10:55:33;0.00;99.90
52058;DHT22;38063;53.210;6.504;2024-01-11T10:58:00;0.00;99.90
52058;DHT22;38063;53.210;6.504;2024-01-11T11:00:28;0.00;99.90
52058;DHT22;38063;53.210;6.504;2024-01-11T11:02:55;0.10;99.90
52058;DHT22;38063;53.210;6.504;2024-01-11T11:05:21;0.10;99.90
52058;DHT22;38063;53.210;6.504;2024-01-11T11:07:49;0.10;99.90
52058;DHT22;38063;53.210;6.504;2024-01-11T11:10:18;0.70;99.90
52058;DHT22;38063;53.210;6.504;2024-01-11T11:12:45;0.20;99.90
52058;DHT22;38063;53.210;6.504;2024-01-11T11:15:12;0.20;99.90
52058;DHT22;38063;53.210;6.504;2024-01-11T11:17:39;0.30;99.90
52058;DHT22;38063;53.210;6.504;2024-01-11T11:20:06;0.30;99.90
52058;DHT22;38063;53.210;6.504;2024-01-11T11:22:34;0.30;99.90
52058;DHT22;38063;53.210;6.504;2024-01-11T11:25:11;0.30;99.90
52058;DHT22;38063;53.210;6.504;2024-01-11T11:27:37;0.30;99.90
52058;DHT22;38063;53.210;6.504;2024-01-11T11:30:04;1.10;99.90
52058;DHT22;38063;53.210;6.504;2024-01-11T11:32:37;0.50;99.90
52058;DHT22;38063;53.210;6.504;2024-01-11T11:35:05;0.50;99.90
52058;DHT22;38063;53.210;6.504;2024-01-11T11:37:31;0.40;99.90
52058;DHT22;38063;53.210;6.504;2024-01-11T11:39:59;0.50;99.90
52058;DHT22;38063;53.210;6.504;2024-01-11T11:42:25;0.70;99.90
52058;DHT22;38063;53.210;6.504;2024-01-11T11:44:51;0.70;99.90
52058;DHT22;38063;53.210;6.504;2024-01-11T11:47:24;0.80;99.90
52058;DHT22;38063;53.210;6.504;2024-01-11T11:50:09;0.80;99.90
52058;DHT22;38063;53.210;6.504;2024-01-11T11:52:37;0.80;99.90
52058;DHT22;38063;53.210;6.504;2024-01-11T11:55:04;0.90;99.90
52058;DHT22;38063;53.210;6.504;2024-01-11T11:57:30;0.90;99.90
52058;DHT22;38063;53.210;6.504;2024-01-11T11:59:57;0.90;99.90
52058;DHT22;38063;53.210;6.504;2024-01-11T12:02:25;0.90;99.90
52058;DHT22;38063;53.210;6.504;2024-01-11T12:04:52;0.90;99.90
52058;DHT22;38063;53.210;6.504;2024-01-11T12:07:18;0.90;99.90
52058;DHT22;38063;53.210;6.504;2024-01-11T12:09:46;1.00;99.90
52058;DHT22;38063;53.210;6.504;2024-01-11T12:12:12;1.00;99.90
52058;DHT22;38063;53.210;6.504;2024-01-11T12:14:38;1.00;99.90
52058;DHT22;38063;53.210;6.504;2024-01-11T12:17:06;1.00;99.90
52058;DHT22;38063;53.210;6.504;2024-01-11T12:19:31;1.00;99.90
52058;DHT22;38063;53.210;6.504;2024-01-11T12:21:58;1.00;99.90
52058;DHT22;38063;53.210;6.504;2024-01-11T12:24:24;1.00;99.90
52058;DHT22;38063;53.210;6.504;2024-01-11T12:26:50;1.00;99.90
52058;DHT22;38063;53.210;6.504;2024-01-11T12:29:23;1.00;99.90
52058;DHT22;38063;53.210;6.504;2024-01-11T12:31:50;1.00;99.90
52058;DHT22;38063;53.210;6.504;2024-01-11T12:34:16;1.10;99.90
52058;DHT22;38063;53.210;6.504;2024-01-11T12:36:42;1.10;99.90
52058;DHT22;38063;53.210;6.504;2024-01-11T12:39:08;1.10;99.90
52058;DHT22;38063;53.210;6.504;2024-01-11T12:41:36;1.10;99.90
52058;DHT22;38063;53.210;6.504;2024-01-11T12:44:02;1.10;99.90
52058;DHT22;38063;53.210;6.504;2024-01-11T12:46:28;1.00;99.90
52058;DHT22;38063;53.210;6.504;2024-01-11T12:48:54;1.10;99.90
52058;DHT22;38063;53.210;6.504;2024-01-11T12:51:20;1.10;99.90
52058;DHT22;38063;53.210;6.504;2024-01-11T12:53:51;1.00;99.90
52058;DHT22;38063;53.210;6.504;2024-01-11T12:56:18;1.10;99.90
52058;DHT22;38063;53.210;6.504;2024-01-11T12:58:44;1.10;99.90
52058;DHT22;38063;53.210;6.504;2024-01-11T13:01:12;1.60;99.90
52058;DHT22;38063;53.210;6.504;2024-01-11T13:03:43;1.10;99.90
52058;DHT22;38063;53.210;6.504;2024-01-11T13:06:09;1.10;99.90
52058;DHT22;38063;53.210;6.504;2024-01-11T13:08:37;1.10;99.90
52058;DHT22;38063;53.210;6.504;2024-01-11T13:11:05;1.10;99.90
52058;DHT22;38063;53.210;6.504;2024-01-11T13:13:35;1.10;99.90
52058;DHT22;38063;53.210;6.504;2024-01-11T13:16:01;1.20;99.90
52058;DHT22;38063;53.210;6.504;2024-01-11T13:18:32;2.00;99.90
52058;DHT22;38063;53.210;6.504;2024-01-11T13:20:57;1.20;99.90
52058;DHT22;38063;53.210;6.504;2024-01-11T13:23:23;1.20;99.90
52058;DHT22;38063;53.210;6.504;2024-01-11T13:25:50;1.20;99.90
52058;DHT22;38063;53.210;6.504;2024-01-11T13:28:16;1.20;99.90
52058;DHT22;38063;53.210;6.504;2024-01-11T13:30:44;1.20;99.90
52058;DHT22;38063;53.210;6.504;2024-01-11T13:33:11;1.20;99.90
52058;DHT22;38063;53.210;6.504;2024-01-11T13:35:38;1.20;99.90
52058;DHT22;38063;53.210;6.504;2024-01-11T13:38:04;1.20;99.90
52058;DHT22;38063;53.210;6.504;2024-01-11T13:40:30;1.30;99.90
52058;DHT22;38063;53.210;6.504;2024-01-11T13:42:57;3.30;99.90
52058;DHT22;38063;53.210;6.504;2024-01-11T13:45:24;1.70;99.90
52058;DHT22;38063;53.210;6.504;2024-01-11T13:47:50;1.30;99.90
52058;DHT22;38063;53.210;6.504;2024-01-11T13:50:16;1.30;99.90
52058;DHT22;38063;53.210;6.504;2024-01-11T13:52:44;1.30;99.90
52058;DHT22;38063;53.210;6.504;2024-01-11T13:55:10;1.30;99.90
52058;DHT22;38063;53.210;6.504;2024-01-11T13:57:37;1.30;99.90
52058;DHT22;38063;53.210;6.504;2024-01-11T14:00:04;1.30;99.90
52058;DHT22;38063;53.210;6.504;2024-01-11T14:02:30;1.30;99.90
52058;DHT22;38063;53.210;6.504;2024-01-11T14:04:55;1.30;99.90
52058;DHT22;38063;53.210;6.504;2024-01-11T14:07:21;1.30;99.90
52058;DHT22;38063;53.210;6.504;2024-01-11T14:09:47;1.30;99.90
52058;DHT22;38063;53.210;6.504;2024-01-11T14:12:13;1.40;99.90
52058;DHT22;38063;53.210;6.504;2024-01-11T14:14:40;1.40;99.90
52058;DHT22;38063;53.210;6.504;2024-01-11T14:17:06;1.40;99.90
52058;DHT22;38063;53.210;6.504;2024-01-11T14:19:32;1.40;99.90
52058;DHT22;38063;53.210;6.504;2024-01-11T14:21:57;1.40;99.90
52058;DHT22;38063;53.210;6.504;2024-01-11T14:24:23;1.40;99.90
52058;DHT22;38063;53.210;6.504;2024-01-11T14:26:51;1.40;99.90
52058;DHT22;38063;53.210;6.504;2024-01-11T14:29:17;1.40;99.90
52058;DHT22;38063;53.210;6.504;2024-01-11T14:31:42;1.40;99.90
52058;DHT22;38063;53.210;6.504;2024-01-11T14:34:09;1.40;99.90
52058;DHT22;38063;53.210;6.504;2024-01-11T14:36:36;1.40;99.90
52058;DHT22;38063;53.210;6.504;2024-01-11T14:39:03;1.50;99.90
52058;DHT22;38063;53.210;6.504;2024-01-11T14:41:30;1.50;99.90
52058;DHT22;38063;53.210;6.504;2024-01-11T14:43:57;1.50;99.90
52058;DHT22;38063;53.210;6.504;2024-01-11T14:46:23;1.50;99.90
52058;DHT22;38063;53.210;6.504;2024-01-11T14:48:49;1.50;99.90
52058;DHT22;38063;53.210;6.504;2024-01-11T14:51:14;1.50;99.90
52058;DHT22;38063;53.210;6.504;2024-01-11T14:53:41;1.50;99.90
52058;DHT22;38063;53.210;6.504;2024-01-11T14:56:07;1.50;99.90
52058;DHT22;38063;53.210;6.504;2024-01-11T14:58:33;1.50;99.90
52058;DHT22;38063;53.210;6.504;2024-01-11T15:00:58;1.50;99.90
52058;DHT22;38063;53.210;6.504;2024-01-11T15:03:24;1.60;99.90
52058;DHT22;38063;53.210;6.504;2024-01-11T15:05:52;1.60;99.90
52058;DHT22;38063;53.210;6.504;2024-01-11T15:08:18;1.60;99.90
52058;DHT22;38063;53.210;6.504;2024-01-11T15:10:50;1.60;99.90
52058;DHT22;38063;53.210;6.504;2024-01-11T15:13:16;1.50;99.90
52058;DHT22;38063;53.210;6.504;2024-01-11T15:15:41;1.60;99.90
52058;DHT22;38063;53.210;6.504;2024-01-11T15:18:07;1.60;99.90
52058;DHT22;38063;53.210;6.504;2024-01-11T15:20:33;1.50;99.90
52058;DHT22;38063;53.210;6.504;2024-01-11T15:23:01;1.60;99.90
52058;DHT22;38063;53.210;6.504;2024-01-11T15:25:28;1.60;99.90
52058;DHT22;38063;53.210;6.504;2024-01-11T15:27:54;1.50;99.90
52058;DHT22;38063;53.210;6.504;2024-01-11T15:30:20;1.50;99.90